Greenview, California
Current Conditions -  °F | °C
As of 7:53 AM on Thursday 23 Oct 2014 (Local Time) from KSIY Reporting Station
Overcast Overcast  
Wind Chill: 56°   Ceiling: 4600
Heat Index: 56°   Visibility: 10mi
Dew Point: 46°   Wind: 16mph
Humidity: 69%   Direction: 180°S
Pressure: 29.96"   Gusts: NA
Location:  41.55°N, 122.9°W
Report Text: KSIY 231453Z AUTO 18014KT 10SM BKN046 OVC070 13/08 A2996 RMK AO2 SLP145 60005 T01330078 53009
Loading
Personal Weather Stations






























Interactive Weather Map
Tropical Storm Tracking
New forecast layout! Learn more

10-Day Weather Forecast

Advertisements
Track Severe Weather on mobile